createdAt,value
2018-12-12T00:00:56.790Z,87.98
2018-12-12T00:03:24.383Z,87.65
2018-12-12T00:05:52.264Z,87.30
2018-12-12T00:08:20.235Z,87.23
2018-12-12T00:10:47.832Z,87.32
2018-12-12T00:13:15.434Z,86.87
2018-12-12T00:15:43.019Z,87.59
2018-12-12T00:18:10.879Z,87.16
2018-12-12T00:20:38.450Z,87.47
2018-12-12T00:23:06.101Z,87.87
2018-12-12T00:25:33.660Z,87.98
2018-12-12T00:28:01.267Z,88.03
2018-12-12T00:30:28.859Z,87.18
2018-12-12T00:32:56.638Z,88.01
2018-12-12T00:35:24.255Z,87.40
2018-12-12T00:37:51.810Z,87.61
2018-12-12T00:40:19.430Z,87.62
2018-12-12T00:42:47.011Z,87.92
2018-12-12T00:45:14.555Z,88.25
2018-12-12T00:47:42.201Z,88.45
2018-12-12T00:50:09.758Z,88.04
2018-12-12T00:52:37.326Z,88.16
2018-12-12T00:55:05.019Z,88.52
2018-12-12T00:57:33.151Z,88.35
2018-12-12T01:00:00.730Z,87.98
2018-12-12T01:02:28.297Z,88.65
2018-12-12T01:04:55.931Z,88.14
2018-12-12T01:07:23.494Z,89.12
2018-12-12T01:09:51.382Z,89.26
2018-12-12T01:12:18.952Z,89.00
2018-12-12T01:14:46.532Z,89.75
2018-12-12T01:17:14.086Z,89.37
2018-12-12T01:19:41.688Z,89.59
2018-12-12T01:22:09.295Z,89.89
2018-12-12T01:24:37.151Z,90.04
2018-12-12T01:27:04.784Z,89.60
2018-12-12T01:29:32.361Z,90.35
2018-12-12T01:32:00.108Z,89.96
2018-12-12T01:34:27.884Z,90.08
2018-12-12T01:36:55.527Z,90.34
2018-12-12T01:39:23.138Z,90.24
2018-12-12T01:41:50.683Z,90.73
2018-12-12T01:44:18.280Z,91.27
2018-12-12T01:46:45.899Z,91.20
2018-12-12T01:49:13.821Z,90.56
2018-12-12T01:51:41.397Z,91.05
2018-12-12T01:54:09.214Z,90.93
2018-12-12T01:56:36.785Z,90.97
2018-12-12T01:59:04.452Z,91.35
2018-12-12T02:01:32.327Z,91.29
2018-12-12T02:04:00.183Z,91.70
2018-12-12T02:06:27.755Z,91.72
2018-12-12T02:08:55.376Z,91.92
2018-12-12T02:11:22.985Z,91.84
2018-12-12T02:13:50.828Z,91.63
2018-12-12T02:16:18.580Z,91.57
2018-12-12T02:18:46.874Z,91.70
2018-12-12T02:21:14.750Z,91.17
2018-12-12T02:23:42.629Z,91.35
2018-12-12T02:26:10.231Z,91.66
2018-12-12T02:28:37.801Z,91.67
2018-12-12T02:31:05.380Z,90.91
2018-12-12T02:33:32.941Z,91.15
2018-12-12T02:36:00.659Z,91.06
2018-12-12T02:38:28.253Z,91.25
2018-12-12T02:40:55.883Z,91.26
2018-12-12T02:43:23.452Z,91.33
2018-12-12T02:45:50.999Z,90.94
2018-12-12T02:48:18.600Z,91.58
2018-12-12T02:50:46.191Z,91.26
2018-12-12T02:53:14.064Z,91.26
2018-12-12T02:55:41.635Z,91.19
2018-12-12T02:58:09.302Z,91.23
2018-12-12T03:00:37.058Z,91.80
2018-12-12T03:03:04.639Z,91.96
2018-12-12T03:05:32.226Z,91.94
2018-12-12T03:07:59.839Z,91.41
2018-12-12T03:10:27.711Z,91.56
2018-12-12T03:12:55.333Z,91.42
2018-12-12T03:15:22.909Z,92.16
2018-12-12T03:17:50.505Z,91.83
2018-12-12T03:20:18.068Z,91.96
2018-12-12T03:22:45.639Z,91.78
2018-12-12T03:25:13.204Z,91.98
2018-12-12T03:27:40.736Z,91.97
2018-12-12T03:30:08.621Z,91.53
2018-12-12T03:32:36.475Z,91.58
2018-12-12T03:35:04.263Z,92.09
2018-12-12T03:37:32.110Z,91.38
2018-12-12T03:40:00.197Z,91.70
2018-12-12T03:42:28.497Z,90.95
2018-12-12T03:44:56.058Z,91.26
2018-12-12T03:47:23.661Z,91.24
2018-12-12T03:49:51.207Z,90.98
2018-12-12T03:52:19.108Z,91.40
2018-12-12T03:54:46.672Z,90.69
2018-12-12T03:57:14.239Z,90.86
2018-12-12T03:59:41.802Z,91.01
2018-12-12T04:02:09.644Z,90.62
2018-12-12T04:04:37.226Z,90.59
2018-12-12T04:07:04.819Z,90.55
2018-12-12T04:09:32.397Z,90.65
2018-12-12T04:12:00.096Z,90.27
2018-12-12T04:14:27.640Z,90.34
2018-12-12T04:16:55.282Z,90.19
2018-12-12T04:19:23.206Z,90.05
2018-12-12T04:21:50.891Z,89.91
2018-12-12T04:24:18.470Z,90.13
2018-12-12T04:26:46.290Z,89.84
2018-12-12T04:29:13.887Z,90.14
2018-12-12T04:31:41.827Z,89.69
2018-12-12T04:34:09.421Z,89.17
2018-12-12T04:36:37.004Z,89.22
2018-12-12T04:39:06.227Z,89.02
2018-12-12T04:41:34.132Z,88.89
2018-12-12T04:44:01.712Z,88.95
2018-12-12T04:46:29.498Z,88.62
2018-12-12T04:48:57.420Z,88.01
2018-12-12T04:51:25.077Z,87.85
2018-12-12T04:53:52.651Z,87.99
2018-12-12T04:56:20.247Z,87.49
2018-12-12T04:58:47.916Z,87.86
2018-12-12T05:01:15.593Z,87.90
2018-12-12T05:03:43.484Z,87.56
2018-12-12T05:06:11.136Z,87.92
2018-12-12T05:08:38.683Z,87.32
2018-12-12T05:11:06.258Z,87.05
2018-12-12T05:13:33.886Z,87.35
2018-12-12T05:16:01.509Z,87.98
2018-12-12T05:18:29.118Z,87.71
2018-12-12T05:20:56.671Z,88.06
2018-12-12T05:23:24.250Z,87.79
2018-12-12T05:25:51.820Z,87.27
2018-12-12T05:28:19.372Z,86.48
2018-12-12T05:30:47.032Z,86.21
2018-12-12T05:33:14.628Z,86.30
2018-12-12T05:35:42.239Z,86.12
2018-12-12T05:38:09.788Z,86.39
2018-12-12T05:40:37.554Z,85.94
2018-12-12T05:43:05.165Z,86.69
2018-12-12T05:45:33.474Z,86.21
2018-12-12T05:48:01.127Z,87.24
2018-12-12T05:50:28.718Z,86.96
2018-12-12T05:52:56.280Z,86.54
2018-12-12T05:55:24.212Z,86.34
2018-12-12T05:57:51.782Z,86.46
2018-12-12T06:00:19.521Z,86.56
2018-12-12T06:02:47.114Z,86.72
2018-12-12T06:05:14.687Z,86.62
2018-12-12T06:07:43.329Z,87.68
2018-12-12T06:10:11.521Z,88.28
2018-12-12T06:12:39.097Z,88.24
2018-12-12T06:15:07.689Z,87.77
2018-12-12T06:17:36.597Z,88.16
2018-12-12T06:20:06.848Z,87.69
2018-12-12T06:22:37.805Z,87.70
2018-12-12T06:25:05.035Z,87.81
2018-12-12T06:27:32.642Z,88.10
2018-12-12T06:30:00.298Z,87.89
2018-12-12T06:32:28.711Z,88.58
2018-12-12T06:34:56.400Z,88.34
2018-12-12T06:37:24.025Z,87.85
2018-12-12T06:39:51.865Z,88.67
2018-12-12T06:42:19.484Z,88.39
2018-12-12T06:44:47.089Z,88.29
2018-12-12T06:47:14.687Z,88.46
2018-12-12T06:49:42.251Z,88.02
2018-12-12T06:52:09.992Z,88.26
2018-12-12T06:54:37.659Z,88.78
2018-12-12T06:57:05.229Z,88.41
2018-12-12T06:59:32.789Z,88.13
2018-12-12T07:02:00.684Z,87.90
2018-12-12T07:04:28.455Z,87.70
2018-12-12T07:06:57.390Z,88.11
2018-12-12T07:09:24.993Z,87.64
2018-12-12T07:11:52.610Z,87.27
2018-12-12T07:14:20.185Z,87.16
2018-12-12T07:16:47.783Z,87.47
2018-12-12T07:19:15.825Z,87.42
2018-12-12T07:21:43.476Z,87.43
2018-12-12T07:24:11.070Z,87.61
2018-12-12T07:26:38.677Z,87.67
2018-12-12T07:29:06.227Z,88.34
2018-12-12T07:31:33.868Z,88.36
2018-12-12T07:34:02.048Z,88.32
2018-12-12T07:36:29.797Z,87.85
2018-12-12T07:38:57.828Z,88.36
2018-12-12T07:41:26.013Z,88.17
2018-12-12T07:43:53.621Z,88.05
2018-12-12T07:46:22.056Z,87.28
2018-12-12T07:48:49.641Z,87.83
2018-12-12T07:51:17.256Z,87.58
2018-12-12T07:53:45.213Z,87.48
2018-12-12T07:56:12.998Z,87.45
2018-12-12T07:58:40.601Z,87.72
2018-12-12T08:01:08.158Z,87.87
2018-12-12T08:03:35.825Z,87.78
2018-12-12T08:06:03.611Z,87.17
2018-12-12T08:08:31.325Z,87.46
2018-12-12T08:10:59.203Z,87.96
2018-12-12T08:13:27.658Z,88.25
2018-12-12T08:15:55.289Z,87.98
2018-12-12T08:18:22.948Z,88.47
2018-12-12T08:20:50.519Z,88.55
2018-12-12T08:23:18.607Z,88.39
2018-12-12T08:25:46.453Z,88.61
2018-12-12T08:28:14.103Z,89.03
2018-12-12T08:30:41.756Z,88.82
2018-12-12T08:33:11.288Z,88.94
2018-12-12T08:35:39.027Z,88.74
2018-12-12T08:38:06.654Z,89.42
2018-12-12T08:40:34.232Z,89.19
2018-12-12T08:43:01.878Z,88.81
2018-12-12T08:45:29.501Z,88.51
2018-12-12T08:47:57.112Z,88.94
2018-12-12T08:50:24.698Z,88.81
2018-12-12T08:52:52.360Z,88.45
2018-12-12T08:55:19.981Z,88.25
2018-12-12T08:57:47.693Z,88.36
2018-12-12T09:00:15.652Z,88.35
2018-12-12T09:02:43.309Z,89.10
2018-12-12T09:05:10.972Z,89.06
2018-12-12T09:07:38.586Z,89.11
2018-12-12T09:10:06.341Z,89.39
2018-12-12T09:12:34.881Z,89.10
2018-12-12T09:15:02.539Z,89.11
2018-12-12T09:17:30.214Z,89.46
2018-12-12T09:19:57.838Z,89.49
2018-12-12T09:22:25.514Z,89.52
2018-12-12T09:24:53.266Z,88.92
2018-12-12T09:27:21.268Z,89.54
2018-12-12T09:29:49.159Z,89.10
2018-12-12T09:32:16.951Z,89.37
2018-12-12T09:34:44.547Z,88.55
2018-12-12T09:37:12.169Z,88.71
2018-12-12T09:39:39.800Z,89.15
2018-12-12T09:42:07.745Z,88.84
2018-12-12T09:44:35.549Z,88.34
2018-12-12T09:47:03.368Z,88.75
2018-12-12T09:49:30.978Z,88.55
2018-12-12T09:51:58.640Z,88.66
2018-12-12T09:54:26.278Z,88.99
2018-12-12T09:56:53.932Z,87.79
2018-12-12T09:59:21.473Z,88.06
2018-12-12T10:01:49.089Z,88.21
2018-12-12T10:04:16.659Z,87.60
2018-12-12T10:06:44.354Z,87.47
2018-12-12T10:09:11.969Z,87.39
2018-12-12T10:11:39.546Z,87.93
2018-12-12T10:14:07.215Z,87.24
2018-12-12T10:16:34.840Z,86.41
2018-12-12T10:19:02.458Z,86.89
2018-12-12T10:21:30.069Z,86.85
2018-12-12T10:23:57.697Z,86.91
2018-12-12T10:26:25.354Z,87.34
2018-12-12T10:28:53.102Z,86.93
2018-12-12T10:31:20.713Z,86.55
2018-12-12T10:33:48.426Z,86.95
2018-12-12T10:36:16.048Z,84.89
2018-12-12T10:38:43.700Z,85.77
2018-12-12T10:41:11.431Z,86.20
2018-12-12T10:43:39.105Z,85.94
2018-12-12T10:46:06.667Z,86.51
2018-12-12T10:48:34.344Z,86.45
2018-12-12T10:51:01.905Z,86.35
2018-12-12T10:53:29.507Z,86.75
2018-12-12T10:55:57.067Z,85.24
2018-12-12T10:58:24.705Z,84.53
2018-12-12T11:00:57.952Z,85.38
2018-12-12T11:03:31.282Z,86.16
2018-12-12T11:05:58.884Z,86.58
2018-12-12T11:08:26.828Z,85.46
2018-12-12T11:10:54.423Z,84.39
2018-12-12T11:13:22.061Z,83.43
2018-12-12T11:15:50.120Z,84.39
2018-12-12T11:18:17.777Z,83.39
2018-12-12T11:20:45.366Z,84.26
2018-12-12T11:23:13.063Z,83.37
2018-12-12T11:25:40.697Z,83.23
2018-12-12T11:28:08.435Z,83.53
2018-12-12T11:30:36.044Z,83.37
2018-12-12T11:33:03.694Z,83.08
2018-12-12T11:35:31.623Z,84.36
2018-12-12T11:37:59.619Z,84.66
2018-12-12T11:40:27.300Z,83.70
2018-12-12T11:42:54.978Z,83.75
2018-12-12T11:45:22.562Z,84.49
2018-12-12T11:47:50.546Z,82.42
2018-12-12T11:50:18.132Z,82.60
2018-12-12T11:52:45.727Z,83.02
2018-12-12T11:55:13.361Z,81.95
2018-12-12T11:57:41.218Z,82.57
2018-12-12T12:00:09.974Z,82.89
2018-12-12T12:02:37.613Z,82.07
2018-12-12T12:05:05.977Z,82.60
2018-12-12T12:07:33.548Z,82.89
2018-12-12T12:10:01.485Z,81.55
2018-12-12T12:12:29.074Z,82.36
2018-12-12T12:14:56.666Z,82.29
2018-12-12T12:17:24.263Z,82.25
2018-12-12T12:19:51.815Z,82.68
2018-12-12T12:22:19.457Z,82.34
2018-12-12T12:24:47.051Z,80.15
2018-12-12T12:27:14.676Z,79.49
2018-12-12T12:29:42.273Z,78.92
2018-12-12T12:32:09.859Z,78.50
2018-12-12T12:34:37.451Z,78.16
2018-12-12T12:37:05.176Z,76.42
2018-12-12T12:39:32.789Z,76.38
2018-12-12T12:42:00.372Z,77.31
2018-12-12T12:44:28.022Z,78.79
2018-12-12T12:46:55.596Z,78.53
2018-12-12T12:49:23.134Z,77.13
2018-12-12T12:51:50.814Z,77.67
2018-12-12T12:54:18.694Z,77.71
2018-12-12T12:56:46.339Z,78.38
2018-12-12T12:59:13.984Z,78.35
2018-12-12T13:01:41.565Z,78.11
2018-12-12T13:04:09.825Z,78.80
2018-12-12T13:06:37.796Z,78.05
2018-12-12T13:09:06.941Z,76.84
2018-12-12T13:11:34.511Z,77.67
2018-12-12T13:14:02.142Z,78.05
2018-12-12T13:16:29.849Z,78.15
2018-12-12T13:18:57.435Z,77.97
2018-12-12T13:21:25.114Z,77.92
2018-12-12T13:23:53.221Z,78.47
2018-12-12T13:26:20.835Z,77.24
2018-12-12T13:28:48.437Z,76.11
2018-12-12T13:31:16.054Z,77.30
2018-12-12T13:33:43.648Z,77.65
2018-12-12T13:36:11.268Z,77.85
2018-12-12T13:38:39.092Z,78.91
2018-12-12T13:41:06.708Z,79.91
2018-12-12T13:43:34.311Z,80.15
2018-12-12T13:46:01.956Z,80.90
2018-12-12T13:48:29.576Z,80.03
2018-12-12T13:50:57.611Z,80.01
2018-12-12T13:53:25.280Z,80.21
2018-12-12T13:55:52.976Z,79.90
2018-12-12T13:58:20.646Z,80.45
2018-12-12T14:00:48.479Z,80.65
2018-12-12T14:03:16.053Z,81.31
2018-12-12T14:05:44.090Z,80.94
2018-12-12T14:08:11.727Z,80.73
2018-12-12T14:10:39.388Z,80.73
2018-12-12T14:13:07.129Z,81.06
2018-12-12T14:15:34.799Z,80.74
2018-12-12T14:18:02.387Z,80.88
2018-12-12T14:20:29.975Z,81.49
2018-12-12T14:22:57.845Z,81.20
2018-12-12T14:25:25.454Z,81.98
2018-12-12T14:27:53.068Z,78.73
2018-12-12T14:30:20.688Z,78.00
2018-12-12T14:32:48.296Z,78.65
2018-12-12T14:35:16.006Z,79.26
2018-12-12T14:37:43.617Z,80.09
2018-12-12T14:40:11.245Z,80.63
2018-12-12T14:42:39.172Z,81.75
2018-12-12T14:45:06.878Z,82.29
2018-12-12T14:47:34.837Z,82.56
2018-12-12T14:50:02.450Z,82.38
2018-12-12T14:52:30.334Z,83.11
2018-12-12T14:54:57.936Z,83.07
2018-12-12T14:57:25.524Z,82.25
2018-12-12T14:59:53.264Z,82.93
2018-12-12T15:02:20.837Z,82.45
2018-12-12T15:04:48.433Z,82.80
2018-12-12T15:07:16.037Z,82.70
2018-12-12T15:09:43.644Z,83.02
2018-12-12T15:12:11.256Z,83.09
2018-12-12T15:14:38.880Z,82.51
2018-12-12T15:17:06.982Z,82.92
2018-12-12T15:19:34.911Z,82.97
2018-12-12T15:22:02.693Z,83.80
2018-12-12T15:24:30.353Z,83.63
2018-12-12T15:26:58.039Z,83.50
2018-12-12T15:29:25.678Z,84.01
2018-12-12T15:31:53.448Z,83.83
2018-12-12T15:34:21.128Z,83.99
2018-12-12T15:36:48.769Z,84.14
2018-12-12T15:39:16.387Z,83.87
2018-12-12T15:41:44.190Z,84.42
2018-12-12T15:44:12.057Z,84.22
2018-12-12T15:46:39.652Z,84.04
2018-12-12T15:49:07.343Z,84.67
2018-12-12T15:51:34.904Z,83.86
2018-12-12T15:54:02.532Z,84.02
2018-12-12T15:56:30.191Z,83.84
2018-12-12T15:58:57.785Z,83.73
2018-12-12T16:01:25.713Z,82.05
2018-12-12T16:03:53.395Z,80.53
2018-12-12T16:06:20.977Z,81.17
2018-12-12T16:08:48.559Z,80.57
2018-12-12T16:11:16.441Z,80.31
2018-12-12T16:13:44.100Z,80.22
2018-12-12T16:16:11.904Z,80.26
2018-12-12T16:18:39.585Z,80.30
2018-12-12T16:21:07.418Z,80.81
2018-12-12T16:23:35.042Z,81.31
2018-12-12T16:26:02.616Z,82.13
2018-12-12T16:28:30.308Z,81.67
2018-12-12T16:30:58.172Z,82.14
2018-12-12T16:33:25.804Z,82.47
2018-12-12T16:35:53.457Z,82.45
2018-12-12T16:38:21.043Z,82.70
2018-12-12T16:40:48.731Z,82.64
2018-12-12T16:43:16.374Z,82.69
2018-12-12T16:45:44.008Z,82.29
2018-12-12T16:48:11.614Z,81.79
2018-12-12T16:50:39.447Z,82.63
2018-12-12T16:53:07.095Z,80.04
2018-12-12T16:55:34.735Z,79.73
2018-12-12T16:58:02.305Z,80.29
2018-12-12T17:00:29.965Z,79.95
2018-12-12T17:02:58.374Z,79.70
2018-12-12T17:05:25.979Z,79.67
2018-12-12T17:07:53.929Z,79.94
2018-12-12T17:10:21.541Z,78.70
2018-12-12T17:12:49.087Z,79.46
2018-12-12T17:15:18.962Z,79.38
2018-12-12T17:17:46.698Z,80.26
2018-12-12T17:20:15.524Z,79.74
2018-12-12T17:22:43.490Z,78.96
2018-12-12T17:25:11.253Z,78.56
2018-12-12T17:27:39.617Z,79.06
2018-12-12T17:30:08.528Z,78.48
2018-12-12T17:32:36.160Z,78.33
2018-12-12T17:35:08.797Z,78.27
2018-12-12T17:37:35.119Z,77.96
2018-12-12T17:40:02.749Z,78.30
2018-12-12T17:42:30.358Z,77.97
2018-12-12T17:44:58.321Z,74.90
2018-12-12T17:47:25.966Z,74.92
2018-12-12T17:49:53.581Z,73.44
2018-12-12T17:52:21.179Z,73.32
2018-12-12T17:54:49.041Z,72.48
2018-12-12T17:57:16.958Z,73.34
2018-12-12T17:59:44.899Z,73.86
2018-12-12T18:02:12.769Z,72.92
2018-12-12T18:04:40.397Z,73.03
2018-12-12T18:07:08.027Z,72.88
2018-12-12T18:09:35.804Z,72.69
2018-12-12T18:12:03.398Z,73.45
2018-12-12T18:14:31.034Z,74.09
2018-12-12T18:16:58.649Z,73.67
2018-12-12T18:19:26.193Z,73.90
2018-12-12T18:21:53.904Z,74.54
2018-12-12T18:24:21.599Z,74.92
2018-12-12T18:26:49.188Z,74.81
2018-12-12T18:29:16.776Z,75.14
2018-12-12T18:31:44.812Z,75.58
2018-12-12T18:34:12.463Z,74.63
2018-12-12T18:36:40.919Z,75.28
2018-12-12T18:39:08.893Z,74.82
2018-12-12T18:41:36.524Z,75.52
2018-12-12T18:44:04.180Z,75.29
2018-12-12T18:46:31.807Z,75.38
2018-12-12T18:48:59.680Z,76.26
2018-12-12T18:51:28.094Z,76.09
2018-12-12T18:53:56.232Z,76.45
2018-12-12T18:56:24.242Z,76.16
2018-12-12T18:58:51.974Z,76.39
2018-12-12T19:01:19.723Z,76.44
2018-12-12T19:03:48.022Z,76.40
2018-12-12T19:06:15.827Z,77.20
2018-12-12T19:08:43.620Z,76.93
2018-12-12T19:11:12.208Z,76.34
2018-12-12T19:13:40.040Z,76.66
2018-12-12T19:16:07.714Z,76.19
2018-12-12T19:18:35.298Z,76.77
2018-12-12T19:21:02.944Z,76.85
2018-12-12T19:23:30.769Z,76.69
2018-12-12T19:25:59.334Z,76.60
2018-12-12T19:28:26.924Z,76.26
2018-12-12T19:30:54.926Z,76.45
2018-12-12T19:33:22.691Z,76.07
2018-12-12T19:35:50.435Z,76.51
2018-12-12T19:38:18.280Z,76.79
2018-12-12T19:40:45.925Z,76.72
2018-12-12T19:43:13.523Z,76.88
2018-12-12T19:45:41.128Z,76.89
2018-12-12T19:48:08.855Z,76.50
2018-12-12T19:50:36.601Z,76.46
2018-12-12T19:53:04.311Z,76.58
2018-12-12T19:55:31.993Z,76.08
2018-12-12T19:57:59.614Z,76.51
2018-12-12T20:00:27.286Z,76.72
2018-12-12T20:02:55.335Z,76.92
2018-12-12T20:05:23.206Z,76.52
2018-12-12T20:07:52.209Z,77.19
2018-12-12T20:10:20.161Z,77.16
2018-12-12T20:12:48.047Z,76.55
2018-12-12T20:15:18.355Z,77.40
2018-12-12T20:17:46.092Z,77.00
2018-12-12T20:20:14.118Z,77.27
2018-12-12T20:25:16.079Z,76.82
2018-12-12T20:27:44.013Z,77.67
2018-12-12T20:30:11.613Z,77.45
2018-12-12T20:32:40.172Z,77.71
2018-12-12T20:35:07.894Z,78.06
2018-12-12T20:37:35.988Z,77.89
2018-12-12T20:40:05.543Z,78.09
2018-12-12T20:42:33.343Z,78.05
2018-12-12T20:45:00.927Z,78.36
2018-12-12T20:47:28.943Z,77.61
2018-12-12T20:49:56.659Z,77.66
2018-12-12T20:52:24.483Z,77.25
2018-12-12T20:54:52.306Z,78.04
2018-12-12T20:57:19.871Z,78.05
2018-12-12T20:59:47.675Z,78.21
2018-12-12T21:02:15.442Z,78.33
2018-12-12T21:04:43.072Z,77.83
2018-12-12T21:07:11.726Z,77.91
2018-12-12T21:09:39.779Z,78.22
2018-12-12T21:12:07.404Z,78.65
2018-12-12T21:14:35.540Z,78.98
2018-12-12T21:17:03.305Z,78.22
2018-12-12T21:19:31.202Z,78.84
2018-12-12T21:21:58.850Z,78.83
2018-12-12T21:24:26.604Z,79.34
2018-12-12T21:26:55.073Z,78.68
2018-12-12T21:29:22.686Z,78.49
2018-12-12T21:31:50.497Z,78.42
2018-12-12T21:34:18.410Z,79.09
2018-12-12T21:36:45.996Z,78.57
2018-12-12T21:39:13.623Z,79.44
2018-12-12T21:41:41.489Z,79.43
2018-12-12T21:44:09.302Z,78.50
2018-12-12T21:46:37.086Z,79.21
2018-12-12T21:49:04.880Z,79.03
2018-12-12T21:51:32.681Z,79.37
2018-12-12T21:54:00.284Z,79.66
2018-12-12T21:56:27.908Z,80.50
2018-12-12T21:58:56.319Z,79.83
2018-12-12T22:01:23.907Z,79.90
2018-12-12T22:03:51.456Z,79.50
2018-12-12T22:06:19.069Z,80.20
2018-12-12T22:08:46.641Z,80.67
2018-12-12T22:11:14.212Z,80.45
2018-12-12T22:13:41.839Z,80.62
2018-12-12T22:16:09.555Z,80.61
2018-12-12T22:18:37.580Z,81.31
2018-12-12T22:21:05.346Z,80.67
2018-12-12T22:23:33.515Z,81.02
2018-12-12T22:26:01.481Z,81.15
2018-12-12T22:28:29.056Z,81.82
2018-12-12T22:30:56.861Z,82.16
2018-12-12T22:33:24.799Z,81.59
2018-12-12T22:35:52.477Z,81.69
2018-12-12T22:38:20.180Z,81.43
2018-12-12T22:40:47.790Z,81.95
2018-12-12T22:43:15.597Z,81.80
2018-12-12T22:45:43.198Z,82.19
2018-12-12T22:48:10.823Z,81.95
2018-12-12T22:50:38.450Z,82.68
2018-12-12T22:53:06.131Z,82.99
2018-12-12T22:55:33.690Z,82.63
2018-12-12T22:58:01.422Z,83.21
2018-12-12T23:00:35.043Z,83.55
2018-12-12T23:03:02.972Z,83.02
2018-12-12T23:05:30.564Z,83.36
2018-12-12T23:07:58.156Z,83.60
2018-12-12T23:10:25.774Z,83.69
2018-12-12T23:12:53.374Z,84.15
2018-12-12T23:15:21.020Z,83.85
2018-12-12T23:17:48.623Z,84.27
2018-12-12T23:20:16.221Z,83.83
2018-12-12T23:22:43.910Z,84.09
2018-12-12T23:25:11.552Z,84.04
2018-12-12T23:27:39.148Z,83.96
2018-12-12T23:30:07.990Z,84.57
2018-12-12T23:32:35.612Z,84.43
2018-12-12T23:35:03.239Z,84.11
2018-12-12T23:37:30.882Z,84.97
2018-12-12T23:39:58.790Z,84.78
2018-12-12T23:42:26.404Z,84.52
2018-12-12T23:44:53.937Z,84.65
2018-12-12T23:47:21.644Z,85.06
2018-12-12T23:49:49.228Z,84.88
2018-12-12T23:52:16.807Z,84.56
2018-12-12T23:54:44.361Z,84.58
2018-12-12T23:57:11.951Z,84.50
2018-12-12T23:59:39.524Z,84.74
